createdAt,value
2022-10-13T00:00:49.841Z,1003
2022-10-13T00:05:50.283Z,1003
2022-10-13T00:10:50.626Z,1003.1
2022-10-13T00:15:51.299Z,1003.1
2022-10-13T00:20:50.162Z,1003
2022-10-13T00:25:50.123Z,1002.9
2022-10-13T00:30:49.885Z,1003
2022-10-13T00:35:50.718Z,1003.1
2022-10-13T00:40:54.103Z,1003
2022-10-13T00:45:52.574Z,1003.1
2022-10-13T00:50:52.087Z,1003
2022-10-13T00:55:52.297Z,1002.9
2022-10-13T01:00:52.788Z,1003
2022-10-13T01:05:55.993Z,1002.9
2022-10-13T01:11:06.086Z,1003
2022-10-13T01:16:00.051Z,1002.9
2022-10-13T01:21:04.813Z,1003
2022-10-13T01:26:15.737Z,1002.9
2022-10-13T01:31:03.886Z,1002.9
2022-10-13T01:36:05.847Z,1002.8
2022-10-13T01:41:01.280Z,1002.9
2022-10-13T01:45:59.593Z,1002.8
2022-10-13T01:50:57.783Z,1002.8
2022-10-13T01:55:57.089Z,1002.7
2022-10-13T02:01:06.917Z,1002.7
2022-10-13T02:06:04.762Z,1002.7
2022-10-13T02:11:00.774Z,1002.7
2022-10-13T02:15:59.234Z,1002.6
2022-10-13T02:20:55.682Z,1002.5
2022-10-13T02:25:58.428Z,1002.5
2022-10-13T02:30:55.242Z,1002.4
2022-10-13T02:35:55.188Z,1002.5
2022-10-13T02:40:55.764Z,1002.6
2022-10-13T02:45:56.304Z,1002.5
2022-10-13T02:50:56.138Z,1002.4
2022-10-13T02:55:56.014Z,1002.4
2022-10-13T03:01:04.585Z,1002.4
2022-10-13T03:05:57.554Z,1002.4
2022-10-13T03:10:57.485Z,1002.4
2022-10-13T03:15:57.265Z,1002.3
2022-10-13T03:20:59.198Z,1002.3
2022-10-13T03:25:56.857Z,1002.2
2022-10-13T03:31:00.316Z,1002.3
2022-10-13T03:35:58.923Z,1002.3
2022-10-13T03:41:03.761Z,1002.2
2022-10-13T03:46:00.494Z,1002.2
2022-10-13T03:50:58.409Z,1002.3
2022-10-13T03:55:58.397Z,1002.3
2022-10-13T04:01:02.798Z,1002.3
2022-10-13T04:05:59.773Z,1002.4
2022-10-13T04:10:59.199Z,1002.3
2022-10-13T04:16:01.244Z,1002.3
2022-10-13T04:20:58.105Z,1002.4
2022-10-13T04:25:57.934Z,1002.3
2022-10-13T04:30:58.864Z,1002.4
2022-10-13T04:35:58.760Z,1002.4
2022-10-13T04:41:01.552Z,1002.4
2022-10-13T04:46:00.215Z,1002.4
2022-10-13T04:50:59.986Z,1002.4
2022-10-13T04:56:01.054Z,1002.3
2022-10-13T05:00:58.989Z,1002.2
2022-10-13T05:05:58.973Z,1002.1
2022-10-13T05:11:01.391Z,1002.2
2022-10-13T05:16:04.589Z,1002.1
2022-10-13T05:21:06.307Z,1002
2022-10-13T05:26:01.824Z,1002
2022-10-13T05:31:09.257Z,1002
2022-10-13T05:36:03.277Z,1002
2022-10-13T05:41:02.260Z,1002
2022-10-13T05:46:01.244Z,1001.9
2022-10-13T05:51:05.606Z,1002
2022-10-13T05:56:07.752Z,1001.9
2022-10-13T06:01:04.176Z,1001.8
2022-10-13T06:06:01.435Z,1001.9
2022-10-13T06:11:01.829Z,1001.8
2022-10-13T06:16:01.587Z,1001.9
2022-10-13T06:21:01.797Z,1002
2022-10-13T06:26:01.777Z,1002.1
2022-10-13T06:31:05.179Z,1002
2022-10-13T06:36:03.874Z,1002
2022-10-13T06:41:04.073Z,1002
2022-10-13T06:46:02.721Z,1001.9
2022-10-13T06:51:06.347Z,1002
2022-10-13T06:56:05.521Z,1001.9
2022-10-13T07:01:04.653Z,1001.9
2022-10-13T07:06:05.493Z,1001.9
2022-10-13T07:11:11.631Z,1001.9
2022-10-13T07:16:04.086Z,1002
2022-10-13T07:21:03.414Z,1001.9
2022-10-13T07:26:06.738Z,1001.8
2022-10-13T07:31:07.500Z,1001.7
2022-10-13T07:36:03.809Z,1001.8
2022-10-13T07:41:05.941Z,1001.8
2022-10-13T07:46:05.936Z,1001.8
2022-10-13T07:51:07.606Z,1001.8
2022-10-13T07:56:09.557Z,1001.8
2022-10-13T08:01:07.183Z,1001.9
2022-10-13T08:06:06.928Z,1001.9
2022-10-13T08:11:11.457Z,1001.9
2022-10-13T08:16:08.897Z,1001.9
2022-10-13T08:21:39.089Z,1001.8
2022-10-13T08:26:15.573Z,1001.8
2022-10-13T08:31:08.726Z,1001.8
2022-10-13T08:36:08.927Z,1001.6
2022-10-13T08:41:15.387Z,1001.7
2022-10-13T08:46:12.705Z,1001.6
2022-10-13T08:51:14.076Z,1001.9
2022-10-13T08:56:16.539Z,1001.9
2022-10-13T09:01:14.231Z,1001.9
2022-10-13T09:06:14.131Z,1001.7
2022-10-13T09:11:12.289Z,1001.7
2022-10-13T09:16:11.472Z,1001.8
2022-10-13T09:21:19.157Z,1001.8
2022-10-13T09:26:18.606Z,1001.8
2022-10-13T09:31:15.862Z,1001.9
2022-10-13T09:36:14.009Z,1001.7
2022-10-13T09:41:16.236Z,1001.7
2022-10-13T09:46:19.940Z,1001.7
2022-10-13T09:51:29.527Z,1001.8
2022-10-13T09:56:21.560Z,1001.8
2022-10-13T10:01:21.248Z,1001.8
2022-10-13T10:06:15.531Z,1001.8
2022-10-13T10:11:17.941Z,1001.7
2022-10-13T10:16:22.888Z,1001.6
2022-10-13T10:21:26.268Z,1001.5
2022-10-13T10:26:23.219Z,1001.5
2022-10-13T10:31:25.346Z,1001.2
2022-10-13T10:36:21.063Z,1001.4
2022-10-13T10:41:31.695Z,1001.3
2022-10-13T10:46:21.912Z,1001.4
2022-10-13T10:51:17.775Z,1001.3
2022-10-13T10:56:24.633Z,1001.4
2022-10-13T11:01:29.995Z,1001.2
2022-10-13T11:06:33.412Z,1001.2
2022-10-13T11:11:37.811Z,1001.2
2022-10-13T11:16:27.425Z,1000.9
2022-10-13T11:21:17.295Z,1000.9
2022-10-13T11:26:41.758Z,1000.7
2022-10-13T11:32:04.174Z,1000.5
2022-10-13T11:36:49.114Z,1000.5
2022-10-13T11:41:24.074Z,1000.6
2022-10-13T11:46:38.710Z,1000.5
2022-10-13T11:51:30.479Z,1000.3
2022-10-13T11:56:20.033Z,1000.5
2022-10-13T12:01:17.759Z,1000.4
2022-10-13T12:06:27.135Z,1000.3
2022-10-13T12:11:25.267Z,1000.4
2022-10-13T12:16:18.480Z,1000.3
2022-10-13T12:21:20.305Z,1000.3
2022-10-13T12:26:21.573Z,1000.3
2022-10-13T12:31:21.266Z,1000.3
2022-10-13T12:36:21.454Z,1000.2
2022-10-13T12:41:23.889Z,1000.2
2022-10-13T12:46:35.796Z,1000
2022-10-13T12:51:23.623Z,1000
2022-10-13T12:56:28.462Z,999.9
2022-10-13T13:01:31.264Z,1000
2022-10-13T13:06:24.923Z,999.9
2022-10-13T13:11:23.048Z,999.8
2022-10-13T13:16:21.912Z,999.8
2022-10-13T13:21:21.578Z,999.8
2022-10-13T13:26:22.655Z,999.9
2022-10-13T13:31:24.007Z,999.8
2022-10-13T13:36:23.939Z,999.8
2022-10-13T13:41:22.927Z,999.8
2022-10-13T13:46:25.141Z,999.9
2022-10-13T13:51:23.384Z,999.8
2022-10-13T13:56:23.250Z,999.9
2022-10-13T14:01:22.934Z,999.6
2022-10-13T14:06:23.600Z,999.6
2022-10-13T14:11:24.284Z,999.5
2022-10-13T14:16:24.121Z,999.4
2022-10-13T14:21:24.131Z,999.5
2022-10-13T14:26:24.099Z,999.6
2022-10-13T14:31:25.045Z,999.6
2022-10-13T14:36:25.204Z,999.6
2022-10-13T14:41:25.247Z,999.6
2022-10-13T14:46:25.474Z,999.5
2022-10-13T14:51:26.317Z,999.5
2022-10-13T14:56:26.977Z,999.6
2022-10-13T15:01:25.884Z,999.5
2022-10-13T15:06:28.185Z,999.5
2022-10-13T15:11:27.129Z,999.5
2022-10-13T15:16:29.297Z,999.4
2022-10-13T15:21:27.008Z,999.4
2022-10-13T15:26:26.914Z,999.3
2022-10-13T15:31:28.302Z,999.3
2022-10-13T15:36:29.316Z,999.3
2022-10-13T15:41:29.275Z,999.3
2022-10-13T15:46:29.285Z,999.3
2022-10-13T15:51:29.493Z,999.4
2022-10-13T15:56:29.597Z,999.4
2022-10-13T16:01:29.389Z,999.4
2022-10-13T16:06:30.427Z,999.5
2022-10-13T16:11:29.304Z,999.5
2022-10-13T16:16:29.423Z,999.5
2022-10-13T16:21:29.787Z,999.4
2022-10-13T16:26:30.303Z,999.4
2022-10-13T16:31:30.262Z,999.4
2022-10-13T16:36:29.929Z,999.5
2022-10-13T16:41:30.357Z,999.4
2022-10-13T16:46:30.764Z,999.3
2022-10-13T16:51:30.527Z,999.3
2022-10-13T16:56:30.740Z,999.3
2022-10-13T17:01:31.782Z,999.3
2022-10-13T17:06:30.399Z,999.3
2022-10-13T17:11:33.003Z,999.4
2022-10-13T17:16:30.571Z,999.3
2022-10-13T17:21:30.376Z,999.3
2022-10-13T17:26:30.210Z,999.3
2022-10-13T17:31:30.257Z,999.4
2022-10-13T17:36:30.222Z,999.3
2022-10-13T17:41:30.277Z,999.3
2022-10-13T17:46:37.432Z,999.3
2022-10-13T17:51:30.291Z,999.3
2022-10-13T17:56:30.405Z,999.3
2022-10-13T18:01:32.789Z,999.3
2022-10-13T18:06:37.871Z,999.3
2022-10-13T18:11:32.024Z,999.3
2022-10-13T18:16:34.914Z,999.3
2022-10-13T18:21:31.830Z,999.2
2022-10-13T18:26:32.965Z,999.2
2022-10-13T18:31:34.768Z,999.2
2022-10-13T18:36:35.532Z,999.2
2022-10-13T18:41:35.079Z,999.2
2022-10-13T18:46:35.320Z,999.2
2022-10-13T18:51:36.211Z,999.3
2022-10-13T18:56:35.026Z,999.2
2022-10-13T19:01:37.589Z,999.3
2022-10-13T19:06:36.650Z,999.2
2022-10-13T19:11:36.362Z,999.2
2022-10-13T19:16:38.524Z,999.1
2022-10-13T19:21:36.798Z,999.1
2022-10-13T19:26:36.195Z,999.2
2022-10-13T19:31:37.775Z,999.1
2022-10-13T19:36:38.678Z,999.1
2022-10-13T19:41:38.336Z,999.1
2022-10-13T19:46:38.155Z,999.2
2022-10-13T19:51:39.420Z,999.1
2022-10-13T19:56:38.593Z,999.1
2022-10-13T20:01:38.802Z,999
2022-10-13T20:06:38.998Z,999
2022-10-13T20:11:39.010Z,999.1
2022-10-13T20:16:39.203Z,999.1
2022-10-13T20:21:39.255Z,999.2
2022-10-13T20:26:39.251Z,999.2
2022-10-13T20:31:39.022Z,999.2
2022-10-13T20:36:39.723Z,999.3
2022-10-13T20:41:40.852Z,999.3
2022-10-13T20:46:41.879Z,999.2
2022-10-13T20:51:43.385Z,999.2
2022-10-13T20:56:42.380Z,999.2
2022-10-13T21:01:42.650Z,999.2
2022-10-13T21:06:42.487Z,999.1
2022-10-13T21:11:42.383Z,999.1
2022-10-13T21:16:42.203Z,999.1
2022-10-13T21:21:41.946Z,999.1
2022-10-13T21:26:42.477Z,999.1
2022-10-13T21:31:42.256Z,999.1
2022-10-13T21:36:42.001Z,999
2022-10-13T21:41:42.717Z,999.1
2022-10-13T21:46:42.746Z,999.1
2022-10-13T21:51:43.744Z,999.1
2022-10-13T21:56:43.160Z,999.2
2022-10-13T22:01:43.015Z,999.1
2022-10-13T22:06:44.334Z,999.1
2022-10-13T22:11:44.809Z,999.2
2022-10-13T22:16:46.328Z,999.1
2022-10-13T22:21:46.099Z,999
2022-10-13T22:26:46.267Z,999.1
2022-10-13T22:31:45.470Z,999.1
2022-10-13T22:36:45.555Z,999
2022-10-13T22:41:45.605Z,998.9
2022-10-13T22:46:45.418Z,998.9
2022-10-13T22:51:45.141Z,999
2022-10-13T22:56:45.933Z,998.9
2022-10-13T23:01:48.053Z,999
2022-10-13T23:06:47.617Z,998.9
2022-10-13T23:11:47.399Z,998.9
2022-10-13T23:16:47.120Z,998.9
2022-10-13T23:21:46.999Z,998.9
2022-10-13T23:26:47.733Z,998.9
2022-10-13T23:31:48.271Z,998.9
2022-10-13T23:36:48.749Z,998.8
2022-10-13T23:41:49.533Z,998.9
2022-10-13T23:46:49.189Z,998.9
2022-10-13T23:51:48.935Z,998.8
2022-10-13T23:56:49.667Z,999
